Time;durP1;ratioP1;P1;durP2;ratioP2;P2;SDS_P1;SDS_P2;PMS_P1;PMS_P2;Temp;Humidity;BMP_temperature;BMP_pressure;BME280_temperature;BME280_humidity;BME280_pressure;Samples;Min_cycle;Max_cycle;Signal;HPM_P1;HPM_P2
2024/01/30 00:00:42;;;;;;;33.15;19.92;;;;;;;7.39;100.00;102627.41;4921993;28;40771;-74
2024/01/30 00:03:07;;;;;;;35.03;19.40;;;;;;;7.38;100.00;102627.41;4925802;28;20064;-75
2024/01/30 00:05:33;;;;;;;29.98;19.60;;;;;;;7.34;100.00;102623.09;4923758;28;20236;-75
2024/01/30 00:07:59;;;;;;;32.35;20.33;;;;;;;7.22;100.00;102632.16;4926115;28;20548;-77
2024/01/30 00:10:24;;;;;;;33.58;20.45;;;;;;;7.23;100.00;102629.50;4925128;28;20028;-74
2024/01/30 00:12:50;;;;;;;28.55;18.73;;;;;;;7.23;100.00;102624.19;4928393;28;20036;-74
2024/01/30 00:15:15;;;;;;;31.92;20.50;;;;;;;7.21;100.00;102617.16;4926884;28;20032;-75
2024/01/30 00:17:41;;;;;;;32.00;20.15;;;;;;;7.13;100.00;102622.66;4938655;28;20040;-77
2024/01/30 00:20:08;;;;;;;28.48;18.73;;;;;;;7.11;100.00;102624.44;4920590;28;21587;-76
2024/01/30 00:22:34;;;;;;;30.88;19.75;;;;;;;7.04;100.00;102616.66;4922241;28;20099;-77
2024/01/30 00:25:00;;;;;;;39.63;20.88;;;;;;;7.01;100.00;102618.44;4924212;28;20275;-76
2024/01/30 00:27:27;;;;;;;33.83;20.63;;;;;;;7.09;100.00;102630.69;4924835;28;20127;-76
2024/01/30 00:29:53;;;;;;;36.80;21.70;;;;;;;7.00;100.00;102622.00;4926359;28;20080;-76
2024/01/30 00:32:19;;;;;;;30.73;20.45;;;;;;;6.99;100.00;102625.56;4923814;28;20127;-77
2024/01/30 00:34:44;;;;;;;36.05;21.58;;;;;;;6.99;100.00;102622.03;4924140;28;20087;-76
2024/01/30 00:37:10;;;;;;;34.05;20.55;;;;;;;6.94;100.00;102618.59;4918273;28;20456;-76
2024/01/30 00:39:35;;;;;;;37.75;21.55;;;;;;;6.89;100.00;102607.22;4930022;28;20035;-77
2024/01/30 00:42:01;;;;;;;35.38;20.73;;;;;;;6.95;100.00;102621.22;4928081;28;20488;-77
2024/01/30 00:44:27;;;;;;;31.70;20.25;;;;;;;6.92;100.00;102612.44;4927653;28;20275;-76
2024/01/30 00:46:53;;;;;;;35.30;19.75;;;;;;;6.89;100.00;102612.53;4929325;28;20044;-76
2024/01/30 00:49:19;;;;;;;36.00;20.95;;;;;;;6.91;100.00;102618.66;4929506;28;20051;-76
2024/01/30 00:51:45;;;;;;;33.85;18.85;;;;;;;6.95;100.00;102612.41;4922643;28;20036;-76
2024/01/30 00:54:10;;;;;;;30.58;19.88;;;;;;;6.93;100.00;102615.09;4926012;28;20110;-76
2024/01/30 00:56:36;;;;;;;33.35;19.67;;;;;;;6.92;100.00;102609.78;4936754;28;20048;-76
2024/01/30 00:59:01;;;;;;;32.50;19.95;;;;;;;6.90;100.00;102615.13;4922998;28;20054;-78
2024/01/30 01:01:27;;;;;;;32.15;19.30;;;;;;;6.87;100.00;102609.88;4927298;28;20333;-77
2024/01/30 01:03:53;;;;;;;29.60;19.45;;;;;;;6.90;100.00;102608.97;4923476;28;20040;-76
2024/01/30 01:06:18;;;;;;;30.27;19.88;;;;;;;6.82;100.00;102602.91;4927061;28;20507;-77
2024/01/30 01:08:44;;;;;;;30.33;19.55;;;;;;;6.76;100.00;102609.22;4926694;28;20043;-76
2024/01/30 01:11:09;;;;;;;35.75;20.13;;;;;;;6.81;100.00;102610.00;4925629;28;20032;-76
2024/01/30 01:13:35;;;;;;;35.25;19.33;;;;;;;6.85;100.00;102614.34;4942431;28;20044;-76
2024/01/30 01:16:00;;;;;;;29.48;18.67;;;;;;;6.94;100.00;102608.00;4931843;28;20048;-75
2024/01/30 01:18:27;;;;;;;25.77;16.92;;;;;;;6.96;100.00;102603.53;4928783;28;20044;-76
2024/01/30 01:20:52;;;;;;;30.58;19.48;;;;;;;6.94;100.00;102603.56;4929066;28;20096;-76
2024/01/30 01:23:18;;;;;;;30.75;18.77;;;;;;;7.05;100.00;102605.13;4929007;28;20474;-74
2024/01/30 01:25:44;;;;;;;31.17;18.55;;;;;;;7.09;100.00;102606.81;4928047;28;20028;-76
2024/01/30 01:28:09;;;;;;;32.85;18.70;;;;;;;7.11;100.00;102597.03;4945129;28;20055;-76
2024/01/30 01:30:35;;;;;;;31.00;19.48;;;;;;;7.10;100.00;102592.66;4928794;28;20032;-76
2024/01/30 01:33:02;;;;;;;27.60;17.92;;;;;;;7.18;100.00;102590.72;4926425;28;20051;-74
2024/01/30 01:35:28;;;;;;;27.67;17.92;;;;;;;7.18;100.00;102586.28;4931913;28;20242;-76
2024/01/30 01:37:59;;;;;;;29.58;19.77;;;;;;;7.18;100.00;102586.28;4930390;28;20035;-75
2024/01/30 01:40:25;;;;;;;28.27;19.20;;;;;;;7.18;100.00;102582.75;4928820;28;20040;-73
2024/01/30 01:42:54;;;;;;;33.30;20.27;;;;;;;7.20;100.00;102580.94;4927356;28;20095;-77
2024/01/30 01:45:21;;;;;;;35.65;20.73;;;;;;;7.17;100.00;102579.19;4928205;28;20036;-76
2024/01/30 01:47:51;;;;;;;30.98;19.15;;;;;;;7.19;100.00;102581.84;4929089;28;20043;-77
2024/01/30 01:50:18;;;;;;;30.63;19.38;;;;;;;7.14;100.00;102579.28;4926424;28;20122;-76
2024/01/30 01:52:46;;;;;;;32.97;19.75;;;;;;;7.14;100.00;102583.72;4932302;28;20079;-75
2024/01/30 01:55:16;;;;;;;32.80;20.45;;;;;;;7.14;100.00;102576.63;4924638;28;20043;-76
2024/01/30 01:57:43;;;;;;;38.03;20.55;;;;;;;7.17;100.00;102580.97;4927135;28;20056;-76
2024/01/30 02:00:10;;;;;;;28.90;19.40;;;;;;;7.09;100.00;102583.81;4930242;28;20075;-75
2024/01/30 02:02:37;;;;;;;44.47;21.65;;;;;;;7.06;100.00;102583.00;4925982;28;20038;-76
2024/01/30 02:05:03;;;;;;;37.78;20.27;;;;;;;7.05;100.00;102579.47;4928501;28;20047;-77
2024/01/30 02:07:29;;;;;;;29.92;19.25;;;;;;;7.09;100.00;102585.59;4927245;28;20047;-74
2024/01/30 02:09:55;;;;;;;33.55;19.77;;;;;;;7.12;100.00;102567.81;4927406;28;20039;-76
2024/01/30 02:12:20;;;;;;;36.90;20.02;;;;;;;7.16;100.00;102569.50;4926268;28;20085;-74
2024/01/30 02:14:47;;;;;;;28.27;19.10;;;;;;;7.16;100.00;102564.19;4930630;28;20629;-75
2024/01/30 02:17:14;;;;;;;31.55;18.73;;;;;;;7.15;100.00;102564.25;4929186;28;20123;-76
2024/01/30 02:19:40;;;;;;;29.52;18.35;;;;;;;7.13;100.00;102558.97;4926888;28;20131;-76
2024/01/30 02:22:06;;;;;;;30.05;18.42;;;;;;;7.18;100.00;102561.53;4929373;28;20088;-75
2024/01/30 02:24:31;;;;;;;29.77;19.60;;;;;;;7.16;100.00;102566.84;4942964;28;20035;-75
2024/01/30 02:26:57;;;;;;;29.88;18.35;;;;;;;7.14;100.00;102555.41;4926248;28;20131;-76
2024/01/30 02:29:23;;;;;;;32.00;19.02;;;;;;;7.14;100.00;102554.53;4928277;28;20080;-74
2024/01/30 02:31:49;;;;;;;28.67;18.15;;;;;;;7.11;100.00;102560.78;4929899;28;20160;-75
2024/01/30 02:34:14;;;;;;;32.03;17.98;;;;;;;7.11;100.00;102546.63;4924508;28;20036;-75
2024/01/30 02:36:43;;;;;;;30.92;18.95;;;;;;;7.19;100.00;102552.66;4928939;28;20035;-74
2024/01/30 02:39:09;;;;;;;29.48;18.27;;;;;;;7.14;100.00;102551.88;4926814;28;20126;-74
2024/01/30 02:41:35;;;;;;;28.92;18.88;;;;;;;7.15;100.00;102556.28;4931911;28;20124;-74
2024/01/30 02:44:02;;;;;;;27.98;17.70;;;;;;;7.15;100.00;102546.53;4927318;28;20040;-75
2024/01/30 02:46:27;;;;;;;28.23;17.13;;;;;;;7.21;100.00;102548.19;4926921;28;20051;-75
2024/01/30 02:48:53;;;;;;;29.83;18.38;;;;;;;7.21;100.00;102540.22;4930569;28;20062;-77
2024/01/30 02:51:18;;;;;;;28.95;18.88;;;;;;;7.19;100.00;102542.91;4929572;28;20048;-74
2024/01/30 02:53:44;;;;;;;32.22;17.55;;;;;;;7.19;100.00;102534.97;4926617;28;20045;-77
2024/01/30 02:56:10;;;;;;;29.50;18.63;;;;;;;7.12;100.00;102530.69;4930311;28;20043;-75
2024/01/30 02:58:36;;;;;;;32.78;19.85;;;;;;;7.09;100.00;102532.53;4930954;28;20091;-75
2024/01/30 03:01:02;;;;;;;29.00;18.23;;;;;;;7.09;100.00;102524.59;4923108;28;20079;-76
2024/01/30 03:03:28;;;;;;;33.60;19.05;;;;;;;7.01;100.00;102517.66;4926803;28;20113;-76
2024/01/30 03:05:54;;;;;;;32.97;18.65;;;;;;;7.04;100.00;102523.81;4931887;28;20514;-77
2024/01/30 03:08:19;;;;;;;32.03;18.95;;;;;;;7.00;100.00;102529.19;4925925;28;20040;-76
2024/01/30 03:10:45;;;;;;;33.33;19.55;;;;;;;7.00;100.00;102515.91;4928065;28;20071;-77
2024/01/30 03:13:10;;;;;;;31.33;19.05;;;;;;;6.97;100.00;102518.63;4927814;28;20036;-76
2024/01/30 03:15:36;;;;;;;35.00;20.30;;;;;;;6.94;100.00;102518.69;4929078;28;20040;-76
2024/01/30 03:18:05;;;;;;;31.27;18.63;;;;;;;6.94;100.00;102524.00;4921679;28;20095;-75
2024/01/30 03:20:31;;;;;;;33.33;20.45;;;;;;;6.88;100.00;102526.78;4926522;28;20102;-76
2024/01/30 03:22:59;;;;;;;34.75;19.92;;;;;;;6.93;100.00;102524.91;4926394;28;20036;-75
2024/01/30 03:25:24;;;;;;;31.00;19.35;;;;;;;6.88;100.00;102516.19;4927842;28;20040;-76
2024/01/30 03:27:50;;;;;;;31.58;20.25;;;;;;;6.83;100.00;102515.41;4928562;28;20044;-75
2024/01/30 03:30:15;;;;;;;35.50;18.65;;;;;;;6.87;100.00;102517.06;4925705;28;20647;-76
2024/01/30 03:32:41;;;;;;;30.10;18.48;;;;;;;6.89;100.00;102514.41;4927718;28;20051;-75
2024/01/30 03:35:07;;;;;;;32.17;19.30;;;;;;;6.88;100.00;102512.66;4922769;28;20036;-75
2024/01/30 03:37:32;;;;;;;29.80;20.27;;;;;;;6.86;100.00;102501.19;4924148;28;20031;-75
2024/01/30 03:39:58;;;;;;;37.30;21.02;;;;;;;6.88;100.00;102504.72;4929211;28;20083;-75
2024/01/30 03:42:23;;;;;;;39.05;20.10;;;;;;;6.83;100.00;102517.16;4929556;28;20091;-75
2024/01/30 03:44:51;;;;;;;32.72;19.58;;;;;;;6.84;100.00;102514.50;4926890;28;20031;-75
2024/01/30 03:47:17;;;;;;;32.33;19.10;;;;;;;6.85;100.00;102510.06;4928229;28;20119;-76
2024/01/30 03:49:42;;;;;;;35.15;19.77;;;;;;;6.88;100.00;102504.72;4931238;28;20103;-76
2024/01/30 03:52:08;;;;;;;38.28;19.20;;;;;;;6.86;100.00;102502.06;4924823;28;20040;-76
2024/01/30 03:54:33;;;;;;;32.72;20.55;;;;;;;6.88;100.00;102492.31;4923638;28;20852;-76
2024/01/30 03:56:59;;;;;;;33.58;20.90;;;;;;;6.86;100.00;102496.78;4927963;28;20063;-75
2024/01/30 03:59:24;;;;;;;32.42;20.63;;;;;;;6.89;100.00;102501.16;4927735;28;20036;-76
2024/01/30 04:01:51;;;;;;;32.63;19.90;;;;;;;6.88;100.00;102492.31;4927550;28;20039;-76
2024/01/30 04:04:18;;;;;;;33.80;19.05;;;;;;;6.94;100.00;102488.66;4924632;28;20094;-76
2024/01/30 04:06:44;;;;;;;36.17;20.60;;;;;;;6.97;100.00;102481.50;4927824;28;20055;-76
2024/01/30 04:09:09;;;;;;;35.45;20.15;;;;;;;7.01;100.00;102477.00;4922662;28;20063;-76
2024/01/30 04:11:35;;;;;;;35.85;19.10;;;;;;;7.07;100.00;102487.47;4928221;28;20102;-76
2024/01/30 04:14:00;;;;;;;33.53;19.67;;;;;;;7.09;100.00;102479.50;4925613;28;20119;-76
2024/01/30 04:16:26;;;;;;;29.98;17.95;;;;;;;7.15;100.00;102480.22;4921716;28;20048;-76
2024/01/30 04:18:52;;;;;;;29.40;18.63;;;;;;;7.13;100.00;102475.84;4923310;28;20063;-76
2024/01/30 04:21:18;;;;;;;34.53;20.13;;;;;;;7.16;100.00;102474.00;4923974;28;20040;-76
2024/01/30 04:23:43;;;;;;;36.40;19.45;;;;;;;7.21;100.00;102477.41;4926166;28;20036;-76
2024/01/30 04:26:09;;;;;;;32.00;19.15;;;;;;;7.23;100.00;102477.41;4925581;28;20036;-76
2024/01/30 04:28:34;;;;;;;27.60;18.23;;;;;;;7.21;100.00;102487.16;4923933;28;20056;-75
2024/01/30 04:31:00;;;;;;;25.73;16.55;;;;;;;7.26;100.00;102477.31;4925211;28;21770;-76
2024/01/30 04:33:25;;;;;;;28.38;18.17;;;;;;;7.31;100.00;102485.16;4922148;28;20044;-76
2024/01/30 04:35:51;;;;;;;30.08;18.33;;;;;;;7.33;100.00;102489.56;4927149;28;20182;-76
2024/01/30 04:38:17;;;;;;;27.85;18.38;;;;;;;7.21;100.00;102488.03;4927478;28;20554;-76
2024/01/30 04:40:43;;;;;;;31.33;19.67;;;;;;;7.28;100.00;102491.44;4926633;28;20652;-76
2024/01/30 04:43:08;;;;;;;30.30;19.02;;;;;;;7.30;100.00;102491.41;4929116;28;20046;-76
2024/01/30 04:45:34;;;;;;;30.17;18.48;;;;;;;7.27;100.00;102482.56;4924164;28;20060;-76
2024/01/30 04:47:59;;;;;;;27.48;18.50;;;;;;;7.23;100.00;102488.03;4925919;28;20042;-75
2024/01/30 04:50:26;;;;;;;33.63;19.38;;;;;;;7.26;100.00;102479.97;4927122;28;20040;-76
2024/01/30 04:52:52;;;;;;;28.95;18.40;;;;;;;7.27;100.00;102481.72;4923920;28;20123;-75
2024/01/30 04:55:17;;;;;;;31.95;19.55;;;;;;;7.32;100.00;102481.59;4927778;28;20032;-76
2024/01/30 04:57:43;;;;;;;34.08;19.40;;;;;;;7.32;100.00;102477.16;4925594;28;20082;-75
2024/01/30 05:00:09;;;;;;;35.63;19.38;;;;;;;7.32;100.00;102471.00;4920640;28;20087;-76
2024/01/30 05:02:35;;;;;;;32.95;20.40;;;;;;;7.28;100.00;102467.56;4924795;28;20043;-76
2024/01/30 05:05:00;;;;;;;32.83;19.08;;;;;;;7.24;100.00;102476.50;4924276;28;28704;-77
2024/01/30 05:07:26;;;;;;;32.05;19.30;;;;;;;7.28;100.00;102470.22;4925941;28;20100;-75
2024/01/30 05:09:52;;;;;;;34.20;20.85;;;;;;;7.26;100.00;102472.88;4921193;28;20036;-77
2024/01/30 05:12:17;;;;;;;40.80;20.88;;;;;;;7.34;100.00;102469.19;4922761;28;20032;-77
2024/01/30 05:14:43;;;;;;;32.20;20.35;;;;;;;7.32;100.00;102465.69;4925920;28;20066;-76
2024/01/30 05:17:10;;;;;;;30.77;18.98;;;;;;;7.36;100.00;102467.38;4929594;28;20043;-74
2024/01/30 05:19:35;;;;;;;31.17;20.30;;;;;;;7.35;100.00;102462.97;4930995;28;20147;-77
2024/01/30 05:22:01;;;;;;;34.70;19.58;;;;;;;7.36;100.00;102462.91;4927194;28;20075;-76
2024/01/30 05:24:26;;;;;;;30.35;19.80;;;;;;;7.39;100.00;102460.22;4926832;28;20039;-77
2024/01/30 05:26:52;;;;;;;31.45;20.25;;;;;;;7.39;100.00;102452.25;4927362;28;21023;-77
2024/01/30 05:29:18;;;;;;;32.10;19.63;;;;;;;7.38;100.00;102450.50;4923603;28;20032;-77
2024/01/30 05:31:43;;;;;;;31.95;19.58;;;;;;;7.42;100.00;102457.47;4926631;28;20040;-77
2024/01/30 05:34:09;;;;;;;28.00;17.77;;;;;;;7.41;100.00;102444.25;4924707;28;20031;-77
2024/01/30 05:36:35;;;;;;;28.75;17.92;;;;;;;7.38;100.00;102447.84;4927607;28;20037;-76
2024/01/30 05:39:00;;;;;;;30.92;18.17;;;;;;;7.47;100.00;102454.69;4923582;28;20040;-76
2024/01/30 05:41:26;;;;;;;36.10;18.15;;;;;;;7.47;100.00;102457.34;4924792;28;20051;-74
2024/01/30 05:43:54;;;;;;;28.95;18.40;;;;;;;7.47;100.00;102467.97;4925278;28;20066;-75
2024/01/30 05:46:20;;;;;;;28.65;18.15;;;;;;;7.51;100.00;102469.66;4922285;28;20032;-74
2024/01/30 05:48:46;;;;;;;25.38;16.40;;;;;;;7.52;100.00;102469.59;4925310;28;20040;-75
2024/01/30 05:51:11;;;;;;;25.73;15.00;;;;;;;7.49;100.00;102477.66;4925138;28;20067;-74
2024/01/30 05:53:37;;;;;;;25.33;16.63;;;;;;;7.53;100.00;102470.50;4928873;28;20028;-75
2024/01/30 05:56:03;;;;;;;25.70;15.57;;;;;;;7.45;100.00;102483.06;4928022;28;20032;-77
2024/01/30 05:58:28;;;;;;;25.45;15.80;;;;;;;7.45;100.00;102477.75;4909581;28;20053;-77
2024/01/30 06:00:54;;;;;;;22.95;15.52;;;;;;;7.43;100.00;102480.47;4911787;28;20488;-77
2024/01/30 06:03:19;;;;;;;23.00;14.63;;;;;;;7.51;100.00;102469.66;4897066;29;20068;-75
2024/01/30 06:05:45;;;;;;;24.80;14.65;;;;;;;7.50;100.00;102473.22;4910844;28;20544;-77
2024/01/30 06:08:10;;;;;;;26.20;14.75;;;;;;;7.54;100.00;102461.63;4912266;28;20492;-76
2024/01/30 06:10:36;;;;;;;22.10;14.60;;;;;;;7.61;100.00;102465.84;4893158;29;20036;-77
2024/01/30 06:13:01;;;;;;;24.48;14.70;;;;;;;7.63;100.00;102468.47;4910776;28;20044;-76
2024/01/30 06:15:29;;;;;;;27.73;15.05;;;;;;;7.63;100.00;102460.50;4913057;28;20036;-76
2024/01/30 06:17:55;;;;;;;21.10;13.32;;;;;;;7.76;100.00;102459.28;4911534;28;20041;-77
2024/01/30 06:20:20;;;;;;;26.88;14.80;;;;;;;7.80;100.00;102463.63;4894735;28;20029;-76
2024/01/30 06:22:46;;;;;;;22.58;13.73;;;;;;;7.81;100.00;102460.03;4901040;28;20040;-76
2024/01/30 06:25:12;;;;;;;23.48;14.10;;;;;;;7.82;100.00;102463.56;4909115;28;20040;-76
2024/01/30 06:27:37;;;;;;;24.45;14.25;;;;;;;7.80;100.00;102463.63;4910129;28;20932;-76
2024/01/30 06:30:04;;;;;;;22.02;14.40;;;;;;;7.85;100.00;102463.50;4890735;29;20051;-76
2024/01/30 06:32:34;;;;;;;24.08;13.65;;;;;;;7.89;100.00;102462.50;4910666;28;20547;-76
2024/01/30 06:35:00;;;;;;;22.27;13.50;;;;;;;7.90;100.00;102453.63;4908087;28;20039;-76
2024/01/30 06:37:25;;;;;;;20.70;13.63;;;;;;;7.96;100.00;102453.47;4909224;28;20100;-75
2024/01/30 06:39:52;;;;;;;20.73;14.02;;;;;;;7.93;100.00;102464.16;4911982;28;20433;-77
2024/01/30 06:42:18;;;;;;;23.77;13.30;;;;;;;8.02;100.00;102459.47;4912780;28;20060;-76
2024/01/30 06:44:43;;;;;;;22.95;13.38;;;;;;;8.01;100.00;102451.56;4891514;28;20032;-75
2024/01/30 06:47:09;;;;;;;20.60;13.38;;;;;;;8.03;100.00;102455.94;4907092;28;20041;-76
2024/01/30 06:49:38;;;;;;;24.80;14.05;;;;;;;8.03;100.00;102463.91;4913224;28;20131;-76
2024/01/30 06:52:05;;;;;;;19.10;12.93;;;;;;;8.01;100.00;102468.34;4889162;28;20115;-77
2024/01/30 06:54:30;;;;;;;22.30;14.25;;;;;;;8.04;100.00;102470.94;4912098;28;20186;-76
2024/01/30 06:56:56;;;;;;;20.77;13.20;;;;;;;7.98;100.00;102472.88;4888371;28;20116;-76
2024/01/30 06:59:22;;;;;;;20.00;13.70;;;;;;;7.93;100.00;102480.09;4925406;28;20046;-76
2024/01/30 07:01:48;;;;;;;26.02;13.60;;;;;;;7.98;100.00;102473.78;4927235;28;20043;-76
2024/01/30 07:04:14;;;;;;;22.83;15.05;;;;;;;7.93;100.00;102477.44;4925840;28;20111;-76
2024/01/30 07:06:39;;;;;;;23.25;13.25;;;;;;;7.95;100.00;102481.81;4929768;28;20552;-76
2024/01/30 07:09:05;;;;;;;23.52;14.85;;;;;;;8.04;100.00;102476.25;4928142;28;20040;-75
2024/01/30 07:11:30;;;;;;;23.13;13.68;;;;;;;8.10;100.00;102471.69;4925553;28;20091;-76
2024/01/30 07:13:56;;;;;;;23.48;14.15;;;;;;;8.00;100.00;102479.03;4927829;28;20036;-75
2024/01/30 07:16:23;;;;;;;21.27;13.60;;;;;;;8.11;100.00;102473.44;4927382;28;20159;-75
2024/01/30 07:18:48;;;;;;;21.80;13.60;;;;;;;8.16;100.00;102476.84;4927922;28;20187;-76
2024/01/30 07:21:15;;;;;;;24.10;12.70;;;;;;;8.11;100.00;102484.06;4921244;28;20492;-75
2024/01/30 07:23:41;;;;;;;19.63;12.50;;;;;;;8.21;100.00;102485.56;4930283;28;20035;-75
2024/01/30 07:26:08;;;;;;;17.90;12.70;;;;;;;8.28;100.00;102487.13;4926882;28;20046;-75
2024/01/30 07:28:34;;;;;;;19.52;12.50;;;;;;;8.30;100.00;102498.59;4922005;28;20436;-76
2024/01/30 07:31:00;;;;;;;23.88;14.23;;;;;;;8.34;100.00;102488.75;4923865;28;20469;-76
2024/01/30 07:33:25;;;;;;;17.67;12.95;;;;;;;8.37;100.00;102497.53;4923924;28;20096;-76
2024/01/30 07:35:52;;;;;;;20.88;13.82;;;;;;;8.29;100.00;102484.44;4931908;28;20396;-76
2024/01/30 07:38:18;;;;;;;21.40;12.65;;;;;;;8.32;100.00;102494.09;4929539;28;20569;-76
2024/01/30 07:40:44;;;;;;;23.17;12.38;;;;;;;8.33;100.00;102493.19;4930164;28;20038;-76
2024/01/30 07:43:10;;;;;;;22.10;13.73;;;;;;;8.39;100.00;102503.69;4928745;28;20047;-76
2024/01/30 07:45:35;;;;;;;26.23;12.85;;;;;;;8.33;100.00;102501.16;4925950;28;20036;-75
2024/01/30 07:48:01;;;;;;;22.33;12.73;;;;;;;8.37;100.00;102504.63;4924899;28;20480;-76
2024/01/30 07:50:27;;;;;;;20.77;12.63;;;;;;;8.39;100.00;102503.69;4926288;28;20063;-76
2024/01/30 07:52:54;;;;;;;23.52;11.35;;;;;;;8.48;100.00;102511.44;4927819;28;20537;-75
2024/01/30 07:55:24;;;;;;;20.98;12.50;;;;;;;8.47;100.00;102506.13;4939759;28;20119;-74
2024/01/30 07:57:52;;;;;;;18.13;11.02;;;;;;;8.66;100.00;102510.03;4921317;28;20063;-75
2024/01/30 08:00:19;;;;;;;20.73;12.63;;;;;;;8.67;100.00;102498.47;4924470;28;20897;-75
2024/01/30 08:02:55;;;;;;;19.08;11.70;;;;;;;8.66;100.00;102507.34;4930800;28;20058;-74
2024/01/30 08:05:22;;;;;;;23.63;12.30;;;;;;;8.73;100.00;102508.03;4922838;28;20035;-75
2024/01/30 08:07:48;;;;;;;20.02;13.13;;;;;;;8.72;100.00;102506.31;4924657;28;20059;-75
2024/01/30 08:10:14;;;;;;;16.73;11.70;;;;;;;8.66;100.00;102523.31;4920547;28;21175;-74
2024/01/30 08:12:40;;;;;;;24.27;13.75;;;;;;;8.73;100.00;102526.66;4925104;28;20068;-74
2024/01/30 08:15:05;;;;;;;23.10;15.02;;;;;;;8.80;100.00;102513.16;4923019;28;20035;-74
2024/01/30 08:17:31;;;;;;;36.13;21.88;;;;;;;8.87;100.00;102508.53;4925935;28;20116;-74
2024/01/30 08:19:58;;;;;;;35.40;23.55;;;;;;;8.82;100.00;102513.09;4922043;28;20515;-75
2024/01/30 08:22:23;;;;;;;26.40;15.93;;;;;;;8.95;100.00;102516.28;4925982;28;20179;-74
2024/01/30 08:24:49;;;;;;;23.77;14.80;;;;;;;8.97;100.00;102520.63;4923669;28;20074;-75
2024/01/30 08:27:14;;;;;;;23.95;15.13;;;;;;;8.98;100.00;102519.72;4939855;28;20044;-74
2024/01/30 08:29:40;;;;;;;22.17;13.13;;;;;;;9.04;100.00;102516.03;4924606;28;20998;-77
2024/01/30 08:32:06;;;;;;;23.50;14.82;;;;;;;9.05;100.00;102518.63;4926134;28;20039;-75
2024/01/30 08:34:32;;;;;;;25.27;13.25;;;;;;;8.97;100.00;102528.63;4923772;28;20044;-77
2024/01/30 08:36:58;;;;;;;24.55;14.65;;;;;;;8.92;100.00;102533.19;4925056;28;20035;-75
2024/01/30 08:39:23;;;;;;;22.80;12.70;;;;;;;9.08;100.00;102537.16;4916474;28;20501;-74
2024/01/30 08:41:49;;;;;;;20.52;12.68;;;;;;;9.10;100.00;102541.56;4926027;28;20047;-73
2024/01/30 08:44:14;;;;;;;23.05;12.93;;;;;;;9.21;100.00;102529.66;4924493;28;20046;-76
2024/01/30 08:46:40;;;;;;;21.27;12.60;;;;;;;9.24;100.00;102534.91;4922964;28;20053;-76
2024/01/30 08:49:05;;;;;;;23.23;12.57;;;;;;;9.20;100.00;102535.06;4920833;28;20036;-74
2024/01/30 08:51:31;;;;;;;21.20;12.95;;;;;;;9.31;100.00;102536.47;4925048;28;20585;-74
2024/01/30 08:53:56;;;;;;;22.58;13.43;;;;;;;9.48;100.00;102525.28;4927743;28;20047;-76
2024/01/30 08:56:22;;;;;;;21.23;12.65;;;;;;;9.52;100.00;102518.06;4924764;28;20036;-77
2024/01/30 08:58:47;;;;;;;23.85;14.35;;;;;;;9.59;100.00;102519.63;4924216;28;20123;-77
2024/01/30 09:01:14;;;;;;;24.33;13.52;;;;;;;9.51;100.00;102511.88;4926387;28;20043;-76
2024/01/30 09:03:41;;;;;;;22.10;13.15;;;;;;;9.59;100.00;102527.63;4924979;28;20150;-76
2024/01/30 09:06:10;;;;;;;24.52;15.63;;;;;;;9.51;100.00;102525.19;4926931;28;20673;-76
2024/01/30 09:08:35;;;;;;;24.42;15.73;;;;;;;9.55;100.00;102518.84;4939958;28;20118;-76
2024/01/30 09:11:08;;;;;;;20.23;14.40;;;;;;;9.72;100.00;102518.28;4927555;28;20280;-76
2024/01/30 09:13:33;;;;;;;21.45;15.05;;;;;;;9.86;100.00;102525.84;4926680;28;20044;-76
2024/01/30 09:15:59;;;;;;;26.83;14.85;;;;;;;9.92;100.00;102517.63;4925093;28;20031;-76
2024/01/30 09:18:24;;;;;;;20.33;15.13;;;;;;;9.81;100.00;102522.44;4923437;28;20040;-76
2024/01/30 09:20:50;;;;;;;24.08;15.88;;;;;;;9.92;100.00;102524.75;4923109;28;20047;-76
2024/01/30 09:23:17;;;;;;;24.63;15.93;;;;;;;9.95;100.00;102528.19;4924625;28;20032;-77
2024/01/30 09:25:42;;;;;;;24.65;15.95;;;;;;;10.00;100.00;102525.38;4925306;28;20197;-76
2024/01/30 09:28:08;;;;;;;26.67;15.40;;;;;;;10.01;100.00;102527.13;4928505;28;20044;-77
2024/01/30 09:30:34;;;;;;;28.95;16.00;;;;;;;10.08;100.00;102525.97;4923734;28;20040;-76
2024/01/30 09:32:59;;;;;;;26.38;15.77;;;;;;;9.86;100.00;102523.16;4924537;28;20166;-76
2024/01/30 09:35:25;;;;;;;19.92;13.55;;;;;;;10.01;100.00;102524.44;4922257;28;20059;-76
2024/01/30 09:37:52;;;;;;;22.30;14.88;;;;;;;10.11;100.00;102533.88;4930429;28;20047;-76
2024/01/30 09:40:19;;;;;;;23.13;14.73;;;;;;;10.13;100.00;102538.22;4931128;28;20457;-76
2024/01/30 09:42:48;;;;;;;24.80;14.15;;;;;;;10.02;100.00;102534.19;4930385;28;20036;-76
2024/01/30 09:45:14;;;;;;;24.15;13.70;;;;;;;10.07;100.00;102545.56;4924053;28;20038;-75
2024/01/30 09:47:44;;;;;;;22.50;13.70;;;;;;;10.02;100.00;102545.72;4929242;28;20044;-76
2024/01/30 09:50:11;;;;;;;24.48;13.85;;;;;;;10.09;100.00;102535.69;4928298;28;20027;-75
2024/01/30 09:52:37;;;;;;;21.90;13.90;;;;;;;10.18;100.00;102529.19;4923751;28;20130;-75
2024/01/30 09:55:03;;;;;;;20.15;14.35;;;;;;;10.11;100.00;102539.19;4924974;28;20036;-75
2024/01/30 09:57:29;;;;;;;19.83;12.82;;;;;;;10.19;100.00;102533.59;4924765;28;20504;-75
2024/01/30 09:59:55;;;;;;;27.13;13.23;;;;;;;10.22;100.00;102538.81;4927541;28;20139;-76
2024/01/30 10:02:21;;;;;;;19.75;12.43;;;;;;;10.21;100.00;102542.44;4923734;28;20127;-75
2024/01/30 10:04:50;;;;;;;18.00;12.82;;;;;;;10.25;100.00;102539.63;4930929;28;20774;-75
2024/01/30 10:07:17;;;;;;;22.55;13.63;;;;;;;10.31;100.00;102533.22;4925379;28;20047;-75
2024/01/30 10:09:43;;;;;;;20.98;12.82;;;;;;;10.36;100.00;102541.94;4928049;28;20199;-75
2024/01/30 10:12:12;;;;;;;23.50;12.18;;;;;;;10.44;100.00;102536.31;4927435;28;20044;-76
2024/01/30 10:14:41;;;;;;;23.77;12.88;;;;;;;10.44;100.00;102539.88;4922942;28;20288;-75
2024/01/30 10:17:09;;;;;;;19.95;12.00;;;;;;;10.46;100.00;102543.34;4929445;28;20036;-76
2024/01/30 10:19:35;;;;;;;22.02;12.20;;;;;;;10.54;100.00;102546.63;4925902;28;20114;-74
2024/01/30 10:22:01;;;;;;;22.13;12.32;;;;;;;10.63;100.00;102548.91;4925712;28;20050;-75
2024/01/30 10:24:27;;;;;;;19.02;12.25;;;;;;;10.67;100.00;102559.50;4925504;28;20068;-75
2024/01/30 10:26:53;;;;;;;24.45;13.32;;;;;;;10.63;100.00;102551.59;4925228;28;20321;-75
2024/01/30 10:29:19;;;;;;;19.80;13.05;;;;;;;10.75;100.00;102549.44;4926024;28;20043;-75
2024/01/30 10:31:44;;;;;;;22.50;13.63;;;;;;;10.91;100.00;102547.06;4929312;28;20043;-75
2024/01/30 10:34:10;;;;;;;24.42;13.27;;;;;;;10.94;100.00;102557.59;4928941;28;20023;-75
2024/01/30 10:36:43;;;;;;;22.50;12.73;;;;;;;11.03;100.00;102557.25;4928290;28;20546;-74
2024/01/30 10:39:10;;;;;;;20.75;12.15;;;;;;;10.99;100.00;102558.31;4925509;28;20068;-74
2024/01/30 10:41:44;;;;;;;19.67;13.50;;;;;;;10.95;100.00;102552.22;4926752;28;20036;-74
2024/01/30 10:44:11;;;;;;;24.00;14.35;;;;;;;10.91;100.00;102555.94;4928921;28;20035;-75
2024/01/30 10:46:42;;;;;;;23.48;13.20;;;;;;;10.90;100.00;102556.88;4928368;28;20136;-75
2024/01/30 10:49:09;;;;;;;24.73;13.90;;;;;;;10.84;100.00;102547.28;4925939;28;20043;-77
2024/01/30 10:51:36;;;;;;;25.38;14.57;;;;;;;10.95;100.00;102541.56;4923439;28;20094;-76
2024/01/30 10:54:04;;;;;;;25.55;13.00;;;;;;;11.01;100.00;102543.13;4930678;28;20040;-77
2024/01/30 10:56:33;;;;;;;22.65;13.40;;;;;;;10.85;100.00;102546.38;4929397;28;20084;-75
2024/01/30 10:58:58;;;;;;;27.20;14.63;;;;;;;10.83;100.00;102550.88;4928325;28;20085;-77
2024/01/30 11:01:26;;;;;;;21.50;13.32;;;;;;;10.91;100.00;102550.59;4926168;28;20047;-76